createdAt,value
2022-10-17T00:00:05.590Z,100854.11
2022-10-17T00:02:54.821Z,100844.44
2022-10-17T00:05:21.496Z,100848.09
2022-10-17T00:07:47.706Z,100846.77
2022-10-17T00:10:14.285Z,100845.08
2022-10-17T00:12:40.515Z,100845.73
2022-10-17T00:15:07.439Z,100845.50
2022-10-17T00:17:33.809Z,100849.25
2022-10-17T00:20:01.788Z,100848.59
2022-10-17T00:22:28.046Z,100848.06
2022-10-17T00:24:54.314Z,100853.31
2022-10-17T00:27:20.552Z,100857.48
2022-10-17T00:29:51.286Z,100862.60
2022-10-17T00:32:18.923Z,100862.95
2022-10-17T00:34:45.417Z,100863.71
2022-10-17T00:37:11.744Z,100864.19
2022-10-17T00:39:38.405Z,100860.91
2022-10-17T00:42:04.701Z,100846.02
2022-10-17T00:44:30.872Z,100849.65
2022-10-17T00:47:00.892Z,100853.50
2022-10-17T00:49:31.838Z,100848.90
2022-10-17T00:52:01.544Z,100848.98
2022-10-17T00:54:36.579Z,100853.81
2022-10-17T00:57:03.931Z,100862.34
2022-10-17T00:59:33.438Z,100864.01
2022-10-17T01:02:07.797Z,100855.39
2022-10-17T01:04:36.239Z,100864.06
2022-10-17T01:07:02.524Z,100867.74
2022-10-17T01:09:29.613Z,100874.35
2022-10-17T01:12:06.596Z,100873.34
2022-10-17T01:14:49.717Z,100865.66
2022-10-17T01:17:33.186Z,100862.80
2022-10-17T01:20:15.417Z,100860.19
2022-10-17T01:22:49.696Z,100858.19
2022-10-17T01:25:47.947Z,100858.94
2022-10-17T01:28:39.469Z,100860.98
2022-10-17T01:31:08.845Z,100855.64
2022-10-17T01:34:02.102Z,100851.90
2022-10-17T01:36:44.283Z,100857.97
2022-10-17T01:39:31.830Z,100861.73
2022-10-17T01:42:05.904Z,100865.46
2022-10-17T01:44:58.200Z,100867.66
2022-10-17T01:47:30.014Z,100868.10
2022-10-17T01:50:06.792Z,100871.17
2022-10-17T01:52:40.762Z,100875.59
2022-10-17T01:55:12.750Z,100881.52
2022-10-17T01:57:48.617Z,100882.65
2022-10-17T02:00:22.728Z,100887.34
2022-10-17T02:02:58.028Z,100902.71
2022-10-17T02:05:27.037Z,100904.09
2022-10-17T02:07:53.261Z,100904.87
2022-10-17T02:10:39.016Z,100900.30
2022-10-17T02:13:26.562Z,100898.20
2022-10-17T02:15:59.450Z,100895.37
2022-10-17T02:18:41.853Z,100885.20
2022-10-17T02:21:18.600Z,100888.40
2022-10-17T02:23:54.799Z,100889.98
2022-10-17T02:26:32.337Z,100896.92
2022-10-17T02:29:14.480Z,100889.20
2022-10-17T02:31:51.075Z,100895.94
2022-10-17T02:34:27.132Z,100905.21
2022-10-17T02:37:00.080Z,100911.59
2022-10-17T02:39:28.627Z,100914.10
2022-10-17T02:42:01.092Z,100916.67
2022-10-17T02:44:30.363Z,100917.67
2022-10-17T02:47:38.925Z,100919.94
2022-10-17T02:50:06.023Z,100929.40
2022-10-17T02:52:55.014Z,100921.77
2022-10-17T02:55:31.569Z,100915.44
2022-10-17T02:58:16.244Z,100907.38
2022-10-17T03:00:43.043Z,100899.09
2022-10-17T03:03:30.813Z,100914.64
2022-10-17T03:06:00.193Z,100931.16
2022-10-17T03:08:26.598Z,100929.56
2022-10-17T03:10:52.916Z,100936.26
2022-10-17T03:13:21.158Z,100951.59
2022-10-17T03:15:47.520Z,100957.65
2022-10-17T03:18:13.797Z,100958.54
2022-10-17T03:20:40.067Z,100955.69
2022-10-17T03:23:06.583Z,100949.02
2022-10-17T03:25:32.957Z,100951.11
2022-10-17T03:28:00.876Z,100947.23
2022-10-17T03:30:28.527Z,100945.56
2022-10-17T03:32:57.748Z,100951.48
2022-10-17T03:35:25.402Z,100960.00
2022-10-17T03:37:52.202Z,100959.67
2022-10-17T03:40:19.875Z,100962.98
2022-10-17T03:42:46.204Z,100961.30
2022-10-17T03:45:13.118Z,100956.87
2022-10-17T03:47:39.678Z,100960.33
2022-10-17T03:50:07.893Z,100959.61
2022-10-17T03:52:35.520Z,100960.19
2022-10-17T03:55:02.287Z,100963.73
2022-10-17T03:57:29.724Z,100959.39
2022-10-17T03:59:56.486Z,100963.98
2022-10-17T04:02:24.720Z,100974.59
2022-10-17T04:04:51.890Z,100978.02
2022-10-17T04:07:18.249Z,100974.98
2022-10-17T04:09:44.820Z,100977.52
2022-10-17T04:12:14.117Z,100990.41
2022-10-17T04:14:40.353Z,100996.66
2022-10-17T04:17:06.809Z,100997.95
2022-10-17T04:19:33.836Z,101003.03
2022-10-17T04:22:02.471Z,100999.17
2022-10-17T04:24:29.383Z,100994.20
2022-10-17T04:27:18.846Z,100992.44
2022-10-17T04:29:45.656Z,100995.31
2022-10-17T04:32:24.984Z,100985.59
2022-10-17T04:35:01.396Z,100984.86
2022-10-17T04:37:29.502Z,100986.84
2022-10-17T04:39:56.077Z,100988.09
2022-10-17T04:42:22.765Z,100983.45
2022-10-17T04:44:51.670Z,100977.48
2022-10-17T04:47:18.256Z,100980.83
2022-10-17T04:49:44.488Z,100985.99
2022-10-17T04:52:10.885Z,100987.50
2022-10-17T04:54:40.111Z,100995.23
2022-10-17T04:57:08.739Z,100995.48
2022-10-17T04:59:35.107Z,100991.42
2022-10-17T05:02:17.354Z,100994.74
2022-10-17T05:04:44.994Z,100994.73
2022-10-17T05:07:11.941Z,100997.49
2022-10-17T05:09:41.046Z,100998.44
2022-10-17T05:12:10.310Z,100994.84
2022-10-17T05:14:38.503Z,100993.94
2022-10-17T05:17:04.775Z,100994.27
2022-10-17T05:19:31.095Z,100998.48
2022-10-17T05:21:57.624Z,100993.48
2022-10-17T05:24:23.895Z,100997.04
2022-10-17T05:26:51.232Z,100999.48
2022-10-17T05:29:17.904Z,101002.54
2022-10-17T05:31:48.151Z,101004.67
2022-10-17T05:34:14.465Z,101013.77
2022-10-17T05:36:41.165Z,101019.39
2022-10-17T05:39:08.222Z,101025.50
2022-10-17T05:41:35.602Z,101023.38
2022-10-17T05:44:04.764Z,101018.63
2022-10-17T05:46:39.395Z,101023.08
2022-10-17T05:49:15.056Z,101035.66
2022-10-17T05:51:53.219Z,101044.27
2022-10-17T05:54:20.159Z,101044.76
2022-10-17T05:56:54.437Z,101043.94
2022-10-17T05:59:24.527Z,101043.19
2022-10-17T06:01:57.796Z,101049.63
2022-10-17T06:04:27.039Z,101050.35
2022-10-17T06:06:55.497Z,101051.34
2022-10-17T06:09:22.975Z,101051.84
2022-10-17T06:11:51.668Z,101053.42
2022-10-17T06:14:17.890Z,101060.50
2022-10-17T06:16:44.148Z,101064.64
2022-10-17T06:19:10.833Z,101069.58
2022-10-17T06:21:38.222Z,101077.13
2022-10-17T06:24:09.840Z,101083.56
2022-10-17T06:26:39.348Z,101082.13
2022-10-17T06:29:11.378Z,101086.20
2022-10-17T06:31:50.168Z,101086.88
2022-10-17T06:34:21.125Z,101090.25
2022-10-17T06:36:53.949Z,101084.77
2022-10-17T06:39:21.060Z,101080.61
2022-10-17T06:41:56.456Z,101077.14
2022-10-17T06:44:40.885Z,101079.84
2022-10-17T06:47:33.628Z,101086.88
2022-10-17T06:50:06.284Z,101087.85
2022-10-17T06:52:51.237Z,101093.70
2022-10-17T06:55:37.533Z,101085.17
2022-10-17T06:58:17.344Z,101083.43
2022-10-17T07:03:36.111Z,101082.17
2022-10-17T07:06:07.068Z,101080.67
2022-10-17T07:08:33.506Z,101086.57
2022-10-17T07:11:13.963Z,101091.27
2022-10-17T07:13:46.179Z,101094.90
2022-10-17T07:16:16.577Z,101100.14
2022-10-17T07:18:58.652Z,101097.52
2022-10-17T07:21:35.196Z,101096.34
2022-10-17T07:24:09.310Z,101104.00
2022-10-17T07:26:43.331Z,101113.04
2022-10-17T07:29:12.185Z,101114.89
2022-10-17T07:31:48.230Z,101120.02
2022-10-17T07:34:15.918Z,101119.27
2022-10-17T07:36:45.344Z,101122.85
2022-10-17T07:39:13.219Z,101118.04
2022-10-17T07:41:40.023Z,101111.11
2022-10-17T07:44:06.831Z,101114.45
2022-10-17T07:46:45.635Z,101117.52
2022-10-17T07:49:11.953Z,101123.02
2022-10-17T07:51:39.759Z,101125.08
2022-10-17T07:54:06.112Z,101127.37
2022-10-17T07:56:32.609Z,101117.11
2022-10-17T07:59:00.705Z,101118.09
2022-10-17T08:01:29.421Z,101117.33
2022-10-17T08:03:55.717Z,101116.91
2022-10-17T08:06:21.942Z,101112.09
2022-10-17T08:08:48.335Z,101109.10
2022-10-17T08:11:15.296Z,101106.52
2022-10-17T08:13:42.057Z,101103.29
2022-10-17T08:16:11.428Z,101109.64
2022-10-17T08:18:39.946Z,101115.12
2022-10-17T08:21:07.672Z,101111.06
2022-10-17T08:23:35.999Z,101107.19
2022-10-17T08:26:05.221Z,101101.28
2022-10-17T08:28:35.443Z,101097.30
2022-10-17T08:31:08.250Z,101099.86
2022-10-17T08:33:34.712Z,101104.19
2022-10-17T08:36:01.977Z,101108.08
2022-10-17T08:38:33.230Z,101111.85
2022-10-17T08:41:05.993Z,101107.38
2022-10-17T08:43:54.372Z,101100.48
2022-10-17T08:46:21.109Z,101104.77
2022-10-17T08:48:50.569Z,101103.98
2022-10-17T08:51:23.740Z,101107.08
2022-10-17T08:53:52.856Z,101103.59
2022-10-17T08:56:43.948Z,101102.80
2022-10-17T08:59:15.316Z,101094.55
2022-10-17T09:01:44.971Z,101093.89
2022-10-17T09:04:20.224Z,101098.30
2022-10-17T09:06:55.400Z,101099.63
2022-10-17T09:09:34.532Z,101101.20
2022-10-17T09:12:13.101Z,101100.61
2022-10-17T09:14:47.800Z,101098.02
2022-10-17T09:17:32.833Z,101092.11
2022-10-17T09:20:10.904Z,101089.67
2022-10-17T09:22:44.222Z,101090.19
2022-10-17T09:25:14.514Z,101096.40
2022-10-17T09:27:45.805Z,101094.89
2022-10-17T09:30:45.506Z,101090.27
2022-10-17T09:33:42.361Z,101091.69
2022-10-17T09:36:15.803Z,101083.85
2022-10-17T09:38:47.147Z,101082.91
2022-10-17T09:41:43.142Z,101086.38
2022-10-17T09:44:19.563Z,101083.89
2022-10-17T09:47:14.511Z,101083.27
2022-10-17T09:49:43.748Z,101082.13
2022-10-17T09:52:15.061Z,101079.87
2022-10-17T09:54:57.696Z,101083.33
2022-10-17T09:57:24.780Z,101074.08
2022-10-17T10:00:07.493Z,101073.67
2022-10-17T10:02:49.857Z,101077.04
2022-10-17T10:05:19.295Z,101074.39
2022-10-17T10:08:02.701Z,101076.02
2022-10-17T10:10:31.002Z,101075.62
2022-10-17T10:13:13.212Z,101074.30
2022-10-17T10:15:42.076Z,101076.88
2022-10-17T10:21:08.905Z,101079.95
2022-10-17T10:23:39.316Z,101078.52
2022-10-17T10:26:21.067Z,101077.24
2022-10-17T10:28:55.130Z,101075.47
2022-10-17T10:31:27.741Z,101074.83
2022-10-17T10:33:56.864Z,101071.66
2022-10-17T10:36:24.049Z,101063.69
2022-10-17T10:38:58.318Z,101061.87
2022-10-17T10:41:27.190Z,101059.06
2022-10-17T10:43:55.472Z,101057.26
2022-10-17T10:46:26.004Z,101055.96
2022-10-17T10:49:01.003Z,101053.18
2022-10-17T10:51:38.405Z,101047.70
2022-10-17T10:54:10.162Z,101050.82
2022-10-17T10:56:39.781Z,101046.16
2022-10-17T10:59:19.864Z,101048.34
2022-10-17T11:01:55.910Z,101047.41
2022-10-17T11:04:46.793Z,101042.42
2022-10-17T11:07:29.543Z,101043.36
2022-10-17T11:09:55.939Z,101045.75
2022-10-17T11:12:28.201Z,101046.77
2022-10-17T11:15:01.769Z,101046.52
2022-10-17T11:18:00.147Z,101043.41
2022-10-17T11:20:58.377Z,101038.16
2022-10-17T11:24:08.446Z,101046.44
2022-10-17T11:26:42.764Z,101037.55
2022-10-17T11:29:11.732Z,101033.14
2022-10-17T11:31:44.501Z,101032.19
2022-10-17T11:34:28.764Z,101028.10
2022-10-17T11:37:03.794Z,101028.23
2022-10-17T11:39:33.101Z,101025.14
2022-10-17T11:42:06.425Z,101026.59
2022-10-17T11:44:38.754Z,101023.05
2022-10-17T11:47:26.996Z,101018.61
2022-10-17T11:53:01.510Z,101017.52
2022-10-17T11:55:30.042Z,101012.38
2022-10-17T11:58:03.151Z,101012.55
2022-10-17T12:00:47.553Z,101012.95
2022-10-17T12:03:34.300Z,101008.66
2022-10-17T12:06:20.001Z,101006.11
2022-10-17T12:08:55.507Z,101003.20
2022-10-17T12:11:42.697Z,100999.04
2022-10-17T12:14:38.895Z,100998.05
2022-10-17T12:17:20.303Z,100998.26
2022-10-17T12:19:46.606Z,100999.16
2022-10-17T12:22:28.870Z,100998.22
2022-10-17T12:24:58.125Z,100995.60
2022-10-17T12:27:45.636Z,100991.90
2022-10-17T12:30:12.005Z,100993.31
2022-10-17T12:33:05.743Z,100991.47
2022-10-17T12:35:35.148Z,100987.45
2022-10-17T12:38:09.542Z,100982.19
2022-10-17T12:40:35.752Z,100982.11
2022-10-17T12:43:27.772Z,100982.10
2022-10-17T12:45:55.779Z,100981.48
2022-10-17T12:48:38.602Z,100973.08
2022-10-17T12:51:34.031Z,100974.20
2022-10-17T12:54:01.452Z,100966.05
2022-10-17T12:56:39.283Z,100968.94
2022-10-17T12:59:13.012Z,100974.30
2022-10-17T13:01:42.981Z,100982.21
2022-10-17T13:04:10.214Z,100982.09
2022-10-17T13:06:44.319Z,100975.20
2022-10-17T13:09:31.460Z,100969.54
2022-10-17T13:12:04.923Z,100966.84
2022-10-17T13:14:33.226Z,100961.77
2022-10-17T13:17:05.197Z,100967.64
2022-10-17T13:19:41.790Z,100970.95
2022-10-17T13:22:23.405Z,100968.67
2022-10-17T13:24:51.710Z,100965.98
2022-10-17T13:27:28.831Z,100967.95
2022-10-17T13:29:57.851Z,100967.50
2022-10-17T13:32:27.176Z,100963.64
2022-10-17T13:35:14.136Z,100965.89
2022-10-17T13:37:43.077Z,100962.77
2022-10-17T13:40:44.730Z,100961.81
2022-10-17T13:43:19.925Z,100959.38
2022-10-17T13:45:49.693Z,100961.73
2022-10-17T13:48:27.728Z,100965.30
2022-10-17T13:51:01.752Z,100965.05
2022-10-17T13:53:33.411Z,100960.45
2022-10-17T13:56:26.459Z,100956.11
2022-10-17T13:58:52.143Z,100958.73
2022-10-17T14:01:20.532Z,100955.10
2022-10-17T14:03:50.173Z,100953.63
2022-10-17T14:06:26.212Z,100948.11
2022-10-17T14:09:04.658Z,100948.36
2022-10-17T14:11:37.186Z,100945.44
2022-10-17T14:14:07.848Z,100938.79
2022-10-17T14:16:40.830Z,100943.96
2022-10-17T14:19:39.723Z,100949.25
2022-10-17T14:22:22.237Z,100947.64
2022-10-17T14:24:52.481Z,100942.48
2022-10-17T14:27:38.547Z,100939.63
2022-10-17T14:33:26.363Z,100936.41
2022-10-17T14:35:56.514Z,100935.77
2022-10-17T14:38:24.421Z,100932.54
2022-10-17T14:41:15.672Z,100929.00
2022-10-17T14:44:05.803Z,100922.92
2022-10-17T14:46:35.013Z,100917.42
2022-10-17T14:49:15.014Z,100914.04
2022-10-17T14:52:29.210Z,100914.25
2022-10-17T14:54:57.785Z,100911.06
2022-10-17T14:57:28.704Z,100911.40
2022-10-17T14:59:56.527Z,100910.61
2022-10-17T15:02:28.573Z,100911.99
2022-10-17T15:04:55.352Z,100909.70
2022-10-17T15:07:22.861Z,100906.08
2022-10-17T15:09:50.891Z,100907.39
2022-10-17T15:12:24.008Z,100911.41
2022-10-17T15:14:51.046Z,100910.46
2022-10-17T15:17:25.085Z,100909.30
2022-10-17T15:19:51.875Z,100907.84
2022-10-17T15:22:18.148Z,100908.39
2022-10-17T15:24:45.584Z,100907.97
2022-10-17T15:27:24.350Z,100906.69
2022-10-17T15:29:52.170Z,100907.02
2022-10-17T15:32:18.418Z,100900.70
2022-10-17T15:34:44.771Z,100902.31
2022-10-17T15:37:32.830Z,100903.61
2022-10-17T15:39:59.480Z,100908.70
2022-10-17T15:42:28.925Z,100903.92
2022-10-17T15:44:56.455Z,100899.27
2022-10-17T15:47:32.885Z,100896.34
2022-10-17T15:50:00.636Z,100895.56
2022-10-17T15:52:27.052Z,100895.99
2022-10-17T15:54:54.080Z,100895.79
2022-10-17T15:57:23.988Z,100897.73
2022-10-17T15:59:52.347Z,100902.67
2022-10-17T16:02:20.553Z,100902.69
2022-10-17T16:04:48.522Z,100897.51
2022-10-17T16:07:15.377Z,100898.25
2022-10-17T16:09:41.665Z,100895.67
2022-10-17T16:12:17.264Z,100900.55
2022-10-17T16:14:43.850Z,100902.19
2022-10-17T16:17:15.573Z,100906.23
2022-10-17T16:19:42.555Z,100904.40
2022-10-17T16:22:36.051Z,100910.98
2022-10-17T16:25:09.445Z,100911.21
2022-10-17T16:27:36.502Z,100907.89
2022-10-17T16:30:07.662Z,100906.23
2022-10-17T16:32:33.932Z,100905.13
2022-10-17T16:35:00.804Z,100907.63
2022-10-17T16:37:27.174Z,100904.42
2022-10-17T16:39:53.492Z,100909.85
2022-10-17T16:42:20.551Z,100910.36
2022-10-17T16:44:48.516Z,100911.52
2022-10-17T16:47:16.633Z,100912.61
2022-10-17T16:49:45.264Z,100911.71
2022-10-17T16:52:12.406Z,100908.54
2022-10-17T16:54:38.683Z,100908.81
2022-10-17T16:57:04.933Z,100907.83
2022-10-17T16:59:31.158Z,100907.63
2022-10-17T17:01:57.399Z,100905.14
2022-10-17T17:04:23.805Z,100897.20
2022-10-17T17:06:50.110Z,100893.43
2022-10-17T17:09:16.381Z,100888.63
2022-10-17T17:11:42.618Z,100891.42
2022-10-17T17:14:10.328Z,100885.75
2022-10-17T17:16:36.563Z,100888.18
2022-10-17T17:19:05.689Z,100887.08
2022-10-17T17:21:33.894Z,100882.35
2022-10-17T17:24:02.033Z,100885.38
2022-10-17T17:26:31.162Z,100884.70
2022-10-17T17:28:59.698Z,100880.33
2022-10-17T17:31:29.368Z,100874.23
2022-10-17T17:36:25.699Z,100882.28
2022-10-17T17:38:54.862Z,100880.68
2022-10-17T17:41:21.519Z,100882.94
2022-10-17T17:43:48.503Z,100880.95
2022-10-17T17:46:17.363Z,100880.07
2022-10-17T17:48:45.330Z,100875.33
2022-10-17T17:51:13.580Z,100871.73
2022-10-17T17:53:40.425Z,100862.62
2022-10-17T17:56:10.056Z,100869.30
2022-10-17T17:58:36.713Z,100865.70
2022-10-17T18:01:13.199Z,100865.92
2022-10-17T18:03:41.279Z,100868.36
2022-10-17T18:06:08.610Z,100866.66
2022-10-17T18:08:35.427Z,100868.94
2022-10-17T18:11:02.453Z,100864.63
2022-10-17T18:13:29.347Z,100860.56
2022-10-17T18:16:00.530Z,100859.82
2022-10-17T18:18:28.744Z,100856.17
2022-10-17T18:20:55.830Z,100855.98
2022-10-17T18:23:23.015Z,100856.35
2022-10-17T18:25:54.061Z,100853.90
2022-10-17T18:28:20.383Z,100854.67
2022-10-17T18:30:46.748Z,100853.08
2022-10-17T18:33:12.975Z,100852.27
2022-10-17T18:35:39.190Z,100849.53
2022-10-17T18:38:05.431Z,100853.45
2022-10-17T18:40:31.785Z,100852.16
2022-10-17T18:42:58.009Z,100845.52
2022-10-17T18:45:24.320Z,100842.80
2022-10-17T18:47:52.998Z,100843.62
2022-10-17T18:50:20.860Z,100843.76
2022-10-17T18:52:48.110Z,100841.40
2022-10-17T18:55:17.638Z,100839.90
2022-10-17T18:57:43.882Z,100837.19
2022-10-17T19:00:10.745Z,100839.42
2022-10-17T19:02:38.086Z,100840.59
2022-10-17T19:05:04.726Z,100836.00
2022-10-17T19:07:31.243Z,100839.10
2022-10-17T19:09:57.689Z,100833.73
2022-10-17T19:12:23.919Z,100832.77
2022-10-17T19:14:50.528Z,100828.47
2022-10-17T19:17:16.776Z,100833.14
2022-10-17T19:19:43.323Z,100830.21
2022-10-17T19:22:09.606Z,100828.08
2022-10-17T19:24:35.884Z,100821.56
2022-10-17T19:27:03.299Z,100811.86
2022-10-17T19:29:32.971Z,100809.92
2022-10-17T19:32:00.317Z,100811.24
2022-10-17T19:34:27.106Z,100815.91
2022-10-17T19:36:55.006Z,100814.30
2022-10-17T19:39:24.377Z,100814.30
2022-10-17T19:41:50.676Z,100816.96
2022-10-17T19:44:17.564Z,100816.58
2022-10-17T19:46:46.026Z,100812.75
2022-10-17T19:49:12.640Z,100809.40
2022-10-17T19:51:39.305Z,100807.48
2022-10-17T19:54:05.565Z,100806.64
2022-10-17T19:56:36.819Z,100806.80
2022-10-17T19:59:05.379Z,100805.31
2022-10-17T20:01:34.584Z,100804.11
2022-10-17T20:04:01.239Z,100805.44
2022-10-17T20:06:27.687Z,100807.27
2022-10-17T20:08:54.160Z,100803.93
2022-10-17T20:11:26.140Z,100803.90
2022-10-17T20:13:54.280Z,100798.40
2022-10-17T20:16:23.905Z,100795.16
2022-10-17T20:18:51.748Z,100799.08
2022-10-17T20:21:26.396Z,100805.03
2022-10-17T20:23:53.758Z,100803.85
2022-10-17T20:26:37.750Z,100805.16
2022-10-17T20:29:09.847Z,100805.98
2022-10-17T20:31:36.513Z,100809.52
2022-10-17T20:34:03.355Z,100816.62
2022-10-17T20:36:29.983Z,100818.17
2022-10-17T20:38:58.053Z,100820.45
2022-10-17T20:41:26.126Z,100813.42
2022-10-17T20:43:54.379Z,100815.14
2022-10-17T20:46:35.815Z,100816.84
2022-10-17T20:49:04.891Z,100815.11
2022-10-17T20:51:31.624Z,100811.73
2022-10-17T20:53:58.296Z,100813.81
2022-10-17T20:56:28.666Z,100810.62
2022-10-17T20:59:00.927Z,100810.41
2022-10-17T21:01:29.128Z,100810.65
2022-10-17T21:03:58.889Z,100809.16
2022-10-17T21:06:27.060Z,100806.29
2022-10-17T21:08:54.854Z,100806.55
2022-10-17T21:11:23.844Z,100806.48
2022-10-17T21:13:55.872Z,100806.70
2022-10-17T21:16:22.292Z,100807.33
2022-10-17T21:18:49.104Z,100809.44
2022-10-17T21:21:18.577Z,100803.33
2022-10-17T21:23:47.416Z,100806.30
2022-10-17T21:26:15.369Z,100802.35
2022-10-17T21:28:43.203Z,100800.39
2022-10-17T21:31:17.352Z,100798.39
2022-10-17T21:33:47.765Z,100797.14
2022-10-17T21:36:17.996Z,100800.25
2022-10-17T21:38:46.484Z,100799.41
2022-10-17T21:41:14.575Z,100801.71
2022-10-17T21:43:42.497Z,100800.10
2022-10-17T21:46:15.340Z,100804.05
2022-10-17T21:48:42.244Z,100801.19
2022-10-17T21:51:11.912Z,100804.36
2022-10-17T21:53:38.646Z,100806.05
2022-10-17T21:56:08.514Z,100806.90
2022-10-17T21:58:34.744Z,100800.40
2022-10-17T22:01:18.881Z,100800.50
2022-10-17T22:03:47.754Z,100793.62
2022-10-17T22:09:05.202Z,100796.05
2022-10-17T22:11:34.314Z,100791.86
2022-10-17T22:14:11.192Z,100796.38
2022-10-17T22:16:38.662Z,100797.13
2022-10-17T22:19:06.839Z,100796.13
2022-10-17T22:21:35.557Z,100804.15
2022-10-17T22:24:05.350Z,100808.34
2022-10-17T22:26:34.187Z,100803.84
2022-10-17T22:29:01.310Z,100805.88
2022-10-17T22:31:27.699Z,100795.70
2022-10-17T22:33:54.814Z,100797.23
2022-10-17T22:36:21.072Z,100787.89
2022-10-17T22:38:47.660Z,100785.77
2022-10-17T22:41:13.911Z,100786.58
2022-10-17T22:43:40.157Z,100783.15
2022-10-17T22:46:06.984Z,100776.91
2022-10-17T22:48:34.175Z,100768.70
2022-10-17T22:51:01.857Z,100765.52
2022-10-17T22:53:29.067Z,100762.85
2022-10-17T22:56:00.701Z,100761.27
2022-10-17T22:58:28.871Z,100767.07
2022-10-17T23:00:55.713Z,100763.70
2022-10-17T23:03:23.494Z,100759.21
2022-10-17T23:05:50.657Z,100756.88
2022-10-17T23:08:17.572Z,100757.11
2022-10-17T23:10:45.471Z,100758.16
2022-10-17T23:13:12.095Z,100761.73
2022-10-17T23:15:38.351Z,100760.83
2022-10-17T23:18:05.049Z,100764.75
2022-10-17T23:20:31.889Z,100763.98
2022-10-17T23:22:58.561Z,100763.91
2022-10-17T23:25:26.108Z,100759.54
2022-10-17T23:27:52.384Z,100759.27
2022-10-17T23:30:19.010Z,100758.36
2022-10-17T23:32:45.323Z,100755.13
2022-10-17T23:35:11.569Z,100748.62
2022-10-17T23:37:37.861Z,100752.55
2022-10-17T23:40:05.433Z,100753.45
2022-10-17T23:42:32.030Z,100754.95
2022-10-17T23:44:58.243Z,100751.42
2022-10-17T23:47:24.505Z,100747.30
2022-10-17T23:49:50.804Z,100741.67
2022-10-17T23:52:17.038Z,100735.14
2022-10-17T23:54:43.498Z,100733.95
2022-10-17T23:57:09.710Z,100736.52
2022-10-17T23:59:36.250Z,100742.83
